Map

Track Data

SID SEASON NUMBER BASIN SUBBASIN NAME ISO_TIME NATURE LAT LON WMO_WIND WMO_PRES WMO_AGENCY TRACK_TYPE DIST2LAND LANDFALL IFLAG USA_AGENCY USA_ATCF_ID USA_LAT USA_LON USA_RECORD USA_STATUS USA_WIND USA_PRES USA_SSHS USA_R34_NE USA_R34_SE USA_R34_SW USA_R34_NW USA_R50_NE USA_R50_SE USA_R50_SW USA_R50_NW USA_R64_NE USA_R64_SE USA_R64_SW USA_R64_NW USA_POCI USA_ROCI USA_RMW USA_EYE TOKYO_LAT TOKYO_LON TOKYO_GRADE TOKYO_WIND TOKYO_PRES TOKYO_R50_DIR TOKYO_R50_LONG TOKYO_R50_SHORT TOKYO_R30_DIR TOKYO_R30_LONG TOKYO_R30_SHORT TOKYO_LAND CMA_LAT CMA_LON CMA_CAT CMA_WIND CMA_PRES HKO_LAT HKO_LON HKO_CAT HKO_WIND HKO_PRES NEWDELHI_LAT NEWDELHI_LON NEWDELHI_GRADE NEWDELHI_WIND NEWDELHI_PRES NEWDELHI_CI NEWDELHI_DP NEWDELHI_POCI REUNION_LAT REUNION_LON REUNION_TYPE REUNION_WIND REUNION_PRES REUNION_TNUM REUNION_CI REUNION_RMW REUNION_R34_NE REUNION_R34_SE REUNION_R34_SW REUNION_R34_NW REUNION_R50_NE REUNION_R50_SE REUNION_R50_SW REUNION_R50_NW REUNION_R64_NE REUNION_R64_SE REUNION_R64_SW REUNION_R64_NW BOM_LAT BOM_LON BOM_TYPE BOM_WIND BOM_PRES BOM_TNUM BOM_CI BOM_RMW BOM_R34_NE BOM_R34_SE BOM_R34_SW BOM_R34_NW BOM_R50_NE BOM_R50_SE BOM_R50_SW BOM_R50_NW BOM_R64_NE BOM_R64_SE BOM_R64_SW BOM_R64_NW BOM_ROCI BOM_POCI BOM_EYE BOM_POS_METHOD BOM_PRES_METHOD NADI_LAT NADI_LON NADI_CAT NADI_WIND NADI_PRES WELLINGTON_LAT WELLINGTON_LON WELLINGTON_WIND WELLINGTON_PRES DS824_LAT DS824_LON DS824_STAGE DS824_WIND DS824_PRES TD9636_LAT TD9636_LON TD9636_STAGE TD9636_WIND TD9636_PRES TD9635_LAT TD9635_LON TD9635_WIND TD9635_PRES TD9635_ROCI NEUMANN_LAT NEUMANN_LON NEUMANN_CLASS NEUMANN_WIND NEUMANN_PRES MLC_LAT MLC_LON MLC_CLASS MLC_WIND MLC_PRES USA_GUST BOM_GUST BOM_GUST_PER REUNION_GUST REUNION_GUST_PER USA_SEAHGT USA_SEARAD_NE USA_SEARAD_SE USA_SEARAD_SW USA_SEARAD_NW STORM_SPEED STORM_DIR
1973052S13151 1973 24 SP EA KIRSTY 1973-02-21 00:00:00 TS -12.9000 151.100 main 257 257 O________OO___ jtwc_sh SH231973 -12.9000 151.100 -1 -12.9000 151.100 TC -12.9000 151.100 4 2 115
1973052S13151 1973 24 SP EA KIRSTY 1973-02-21 03:00:00 TS -12.9445 151.198 main 261 261 P________PP___ SH231973 -12.9425 151.190 -1 -12.9425 151.190 TC -12.9485 151.214 4 2 116
1973052S13151 1973 24 SP EA KIRSTY 1973-02-21 06:00:00 TS -13.0025 151.311 main 275 275 O________OP___ jtwc_sh SH231973 -13.0000 151.300 -1 -13.0000 151.300 TC -13.0075 151.333 4 3 120
1973052S13151 1973 24 SP EA KIRSTY 1973-02-21 09:00:00 TS -13.0859 151.448 main 289 289 P________PP___ SH231973 -13.0850 151.443 -1 -13.0850 151.443 TC -13.0878 151.460 4 3 125
1973052S13151 1973 24 SP EA KIRSTY 1973-02-21 12:00:00 TS -13.2000 151.600 main 307 307 O________OO___ jtwc_sh SH231973 -13.2000 151.600 -1 -13.2000 151.600 TC -13.2000 151.600 4 4 132
1973052S13151 1973 24 SP EA KIRSTY 1973-02-21 15:00:00 TS -13.3446 151.747 main 321 321 P________PP___ SH231973 -13.3425 151.743 -1 -13.3425 151.743 TC -13.3487 151.756 4 4 135
1973052S13151 1973 24 SP EA KIRSTY 1973-02-21 18:00:00 TS -13.5050 151.909 main 350 350 O________OP___ jtwc_sh SH231973 -13.5000 151.900 -1 -13.5000 151.900 TC -13.5150 151.927 4 5 134
1973052S13151 1973 24 SP EA KIRSTY 1973-02-21 21:00:00 TS -13.6729 152.098 main 379 379 P________PP___ SH231973 -13.6725 152.092 -1 -13.6725 152.092 TC -13.6737 152.110 4 5 128
1973052S13151 1973 24 SP EA KIRSTY 1973-02-22 00:00:00 TS -13.8000 152.300 main 398 398 O________OO___ jtwc_sh SH231973 -13.8000 152.300 -1 -13.8000 152.300 TC -13.8000 152.300 4 4 112
1973052S13151 1973 24 SP EA KIRSTY 1973-02-22 03:00:00 TS -13.8303 152.496 main 408 408 P________PP___ SH231973 -13.8150 152.500 -1 -13.8150 152.500 TC -13.8609 152.489 4 4 94
1973052S13151 1973 24 SP EA KIRSTY 1973-02-22 06:00:00 TS -13.8291 152.695 main 419 419 O________OP___ jtwc_sh SH231973 -13.8000 152.700 -1 -13.8000 152.700 TC -13.8874 152.685 4 4 94
1973052S13151 1973 24 SP EA KIRSTY 1973-02-22 09:00:00 TS -13.8601 152.896 main 440 440 P________PP___ SH231973 -13.8425 152.900 -1 -13.8425 152.900 TC -13.8953 152.889 4 4 100
1973052S13151 1973 24 SP EA KIRSTY 1973-02-22 12:00:00 TS -13.9000 153.100 main 452 452 O________OO___ jtwc_sh SH231973 -13.9000 153.100 -1 -13.9000 153.100 TC -13.9000 153.100 4 4 103
1973052S13151 1973 24 SP EA KIRSTY 1973-02-22 15:00:00 TS -13.9480 153.301 main 465 465 P________PP___ SH231973 -13.9575 153.292 -1 -13.9575 153.292 TC -13.9290 153.318 4 4 102
1973052S13151 1973 24 SP EA KIRSTY 1973-02-22 18:00:00 TS -13.9858 153.514 main 487 487 O________OP___ jtwc_sh SH231973 -14.0000 153.500 -1 -14.0000 153.500 TC -13.9575 153.542 4 4 97
1973052S13151 1973 24 SP EA KIRSTY 1973-02-22 21:00:00 TS -13.9991 153.757 main 508 508 P________PP___ SH231973 -14.0075 153.750 -1 -14.0075 153.750 TC -13.9822 153.771 4 5 92
1973052S13151 1973 24 SP EA KIRSTY 1973-02-23 00:00:00 TS -14.0000 154.000 main 523 523 O________OO___ jtwc_sh SH231973 -14.0000 154.000 -1 -14.0000 154.000 TC -14.0000 154.000 4 4 90
1973052S13151 1973 24 SP EA KIRSTY 1973-02-23 03:00:00 TS -14.0023 154.206 main 538 538 P________PP___ SH231973 -13.9999 154.200 -1 -13.9999 154.200 TC -14.0071 154.217 4 4 90
1973052S13151 1973 24 SP EA KIRSTY 1973-02-23 06:00:00 TS -14.0024 154.412 main 553 553 O________OP___ jtwc_sh SH231973 -14.0000 154.400 -1 -14.0000 154.400 TC -14.0073 154.435 4 4 90
1973052S13151 1973 24 SP EA KIRSTY 1973-02-23 09:00:00 TS -14.0013 154.649 main 569 569 P________PP___ SH231973 -14.0000 154.643 -1 -14.0000 154.643 TC -14.0039 154.661 4 5 90
1973052S13151 1973 24 SP EA KIRSTY 1973-02-23 12:00:00 TS -14.0000 154.900 main 594 594 O________OO___ jtwc_sh SH231973 -14.0000 154.900 -1 -14.0000 154.900 TC -14.0000 154.900 4 5 90
1973052S13151 1973 24 SP EA KIRSTY 1973-02-23 15:00:00 TS -14.0000 155.151 main 619 619 P________PP___ SH231973 -13.9999 155.143 -1 -13.9999 155.143 TC -14.0000 155.169 4 5 90
1973052S13151 1973 24 SP EA KIRSTY 1973-02-23 18:00:00 TS -14.0000 155.417 main 637 637 O________OP___ jtwc_sh SH231973 -14.0000 155.400 -1 -14.0000 155.400 TC -14.0001 155.450 4 5 90
1973052S13151 1973 24 SP EA KIRSTY 1973-02-23 21:00:00 TS -14.0000 155.710 main 646 626 P________PP___ SH231973 -14.0000 155.700 -1 -14.0000 155.700 TC -14.0000 155.731 4 6 90
1973052S13151 1973 24 SP EA KIRSTY 1973-02-24 00:00:00 TS -14.0000 156.000 main 626 612 O________OO___ jtwc_sh SH231973 -14.0000 156.000 -1 -14.0000 156.000 TC -14.0000 156.000 4 5 90
1973052S13151 1973 24 SP EA KIRSTY 1973-02-24 03:00:00 TS -13.9972 156.252 main 605 591 P________PP___ SH231973 -14.0000 156.265 -1 -14.0000 156.265 TC -13.9917 156.227 4 5 89
1973052S13151 1973 24 SP EA KIRSTY 1973-02-24 06:00:00 TS -13.9949 156.481 main 591 578 O________OP___ jtwc_sh SH231973 -14.0000 156.500 -1 -14.0000 156.500 TC -13.9847 156.443 4 4 90
1973052S13151 1973 24 SP EA KIRSTY 1973-02-24 09:00:00 TS -13.9951 156.682 main 578 566 P________PP___ SH231973 -13.9999 156.693 -1 -13.9999 156.693 TC -13.9854 156.662 4 4 91
1973052S13151 1973 24 SP EA KIRSTY 1973-02-24 12:00:00 TS -14.0000 156.900 main 566 548 O________OO___ jtwc_sh SH231973 -14.0000 156.900 -1 -14.0000 156.900 TC -14.0000 156.900 4 5 88
1973052S13151 1973 24 SP EA KIRSTY 1973-02-24 15:00:00 TS -13.9817 157.203 main 548 532 P________PP___ SH231973 -13.9850 157.185 -1 -13.9850 157.185 TC -13.9750 157.239 4 6 89
1973052S13151 1973 24 SP EA KIRSTY 1973-02-24 18:00:00 TS -13.9910 157.530 main 532 522 O________OP___ jtwc_sh SH231973 -14.0000 157.500 -1 -14.0000 157.500 TC -13.9730 157.590 4 6 98
1973052S13151 1973 24 SP EA KIRSTY 1973-02-24 20:00:00 TS -14.0511 157.733 30 999 bom main 533 528 P_____O__PP___ SH231973 -14.0183 157.727 -1 -14.5000 157.500 20 30 999 2.50000 -14.0183 157.727 TC -14.0044 157.802 4 45 45 6 114
1973052S13151 1973 24 SP EA KIRSTY 1973-02-24 21:00:00 TS -14.1081 157.801 main 528 524 P_____P__PP___ SH231973 -14.0401 157.837 -1 -14.5274 157.469 20 31 998 -14.0401 157.837 TC -14.0344 157.895 4 5 135
1973052S13151 1973 24 SP EA KIRSTY 1973-02-24 23:00:00 TS -14.2227 157.908 35 998 bom main 534 534 P_____O__PP___ SH231973 -14.1272 158.029 -1 -14.6000 157.400 30 35 998 3.00000 -14.1272 158.029 TC -14.1307 158.046 4 49 49 4 168
1973052S13151 1973 24 SP EA KIRSTY 1973-02-25 00:00:00 TS -14.3165 157.850 main 548 548 O_____P_OOO_O_ jtwc_sh SH231973 -14.2000 158.100 -1 -14.6533 157.361 30 35 997 -13.6000 157.400 30 997 -14.2000 158.100 TC -14.2000 158.100 4 -14.7000 157.700 TC 35 998 6 196
1973052S13151 1973 24 SP EA KIRSTY 1973-02-25 02:00:00 TS -14.5177 157.822 35 996 bom main 569 569 P_____O_PPP_P_ SH231973 -14.4137 158.200 -1 -14.8000 157.300 30 35 996 3.00000 -13.9116 157.240 31 995 -14.4137 158.200 TC -14.4102 158.198 4 -14.8588 157.631 TC 36 996 49 49 7 193
1973052S13151 1973 24 SP EA KIRSTY 1973-02-25 03:00:00 TS -14.6366 157.770 main 579 579 P_____P_PPP_P_ SH231973 -14.5474 158.225 -1 -14.8975 157.298 30 36 995 -14.0659 157.161 32 995 -14.5474 158.225 TC -14.5365 158.229 4 -14.9400 157.598 TC 37 996 8 199
1973052S13151 1973 24 SP EA KIRSTY 1973-02-25 05:00:00 TS -14.8844 157.695 40 994 bom main 614 614 P_____O_PPP_P_ SH231973 -14.8452 158.225 -1 -15.1000 157.300 30 40 994 3.00000 -14.3684 157.008 34 994 -14.8452 158.225 TC -14.8205 158.252 4 -15.1099 157.532 TC 39 994 55 55 8 195
1973052S13151 1973 24 SP EA KIRSTY 1973-02-25 06:00:00 TS -15.0067 157.665 main 625 625 O_____P_POP_O_ jtwc_sh SH231973 -15.0000 158.200 -1 -15.1583 157.275 30 40 993 -14.5154 156.936 35 993 -15.0000 158.200 TC -14.9734 158.241 4 -15.2000 157.500 TC 40 994 8 195
1973052S13151 1973 24 SP EA KIRSTY 1973-02-25 08:00:00 TS -15.2614 157.599 40 992 bom main 660 660 P_____O_PPP_P_ SH231973 -15.3135 158.166 -1 -15.3000 157.200 30 40 992 3.00000 -14.7978 156.804 36 992 -15.3135 158.166 TC -15.2898 158.170 4 -15.3921 157.439 TC 41 992 55 55 8 195
1973052S13151 1973 24 SP EA KIRSTY 1973-02-25 09:00:00 TS -15.4020 157.554 main 670 670 P_____P_PPP_P_ SH231973 -15.4721 158.120 -1 -15.4538 157.167 30 41 991 -14.9321 156.744 37 991 -15.4721 158.120 TC -15.4486 158.107 4 -15.4925 157.407 TC 42 992 9 201
1973052S13151 1973 24 SP EA KIRSTY 1973-02-25 11:00:00 TS -15.6801 157.433 45 990 bom main 710 710 P_____O_PPP_P_ SH231973 -15.7699 157.943 -1 -15.8000 157.100 30 45 990 3.00000 -15.1838 156.642 39 990 -15.7699 157.943 TC -15.7561 157.924 4 -15.6974 157.339 TC 44 990 64 64 9 206
1973052S13151 1973 24 SP EA KIRSTY 1973-02-25 12:00:00 TS -15.8023 157.352 main 720 720 O_____P_OOO_O_ jtwc_sh SH231973 -15.9000 157.800 -1 -15.9158 157.067 30 46 989 -15.3000 156.600 40 990 -15.9000 157.800 TC -15.9000 157.800 4 -15.8000 157.300 TC 45 990 9 222
1973052S13151 1973 24 SP EA KIRSTY 1973-02-25 14:00:00 TS -15.9997 157.132 50 988 bom main 753 753 P_____O_PPP_P_ SH231973 -16.0879 157.371 -1 -16.1000 157.000 30 50 988 3.50000 -15.5127 156.537 40 990 -16.0879 157.371 TC -16.1120 157.425 4 -15.9946 157.208 TC 48 988 69 69 9 229
1973052S13151 1973 24 SP EA KIRSTY 1973-02-25 15:00:00 TS -16.0922 157.004 main 767 767 P_____P_PPP_P_ SH231973 -16.1656 157.110 -1 -16.2000 156.972 30 50 987 -15.6114 156.513 40 990 -16.1656 157.110 TC -16.2102 157.201 4 -16.0925 157.157 TC 50 988 9 235
1973052S13151 1973 24 SP EA KIRSTY 1973-02-25 17:00:00 TS -16.2743 156.731 50 986 bom main 801 801 P_____O_PPP_P_ SH231973 -16.3160 156.562 -1 -16.4000 156.900 30 50 986 3.50000 -15.7999 156.474 40 990 -16.3160 156.562 TC -16.3974 156.709 4 -16.2943 157.053 TC 53 986 69 69 10 235
1973052S13151 1973 24 SP EA KIRSTY 1973-02-25 18:00:00 TS -16.3680 156.593 main 816 816 O_____P_POP_O_ jtwc_sh SH231973 -16.4000 156.300 -1 -16.4946 156.841 30 51 985 -15.8922 156.456 40 990 -16.4000 156.300 TC -16.4890 156.452 4 -16.4000 157.000 TC 55 986 10 232
1973052S13151 1973 24 SP EA KIRSTY 1973-02-25 20:00:00 TS -16.5734 156.330 55 984 bom main 850 850 P_____O_PPP_P_ SH231973 -16.6067 155.822 -1 -16.7000 156.700 30 55 984 4.00000 -16.0795 156.419 40 990 -16.6067 155.822 TC -16.6753 155.942 4 -16.6254 156.916 TC 56 984 75 75 10 230
1973052S13151 1973 24 SP EA KIRSTY 1973-02-25 21:00:00 TS -16.6847 156.206 main 859 828 P_____P_PPP_P_ SH231973 -16.7201 155.603 -1 -16.8254 156.639 30 58 983 -16.1770 156.397 40 990 -16.7201 155.603 TC -16.7728 155.701 4 -16.7424 156.872 TC 57 984 10 224
1973052S13151 1973 24 SP EA KIRSTY 1973-02-25 23:00:00 TS -16.9227 155.977 65 982 bom main 828 812 P_____O_PPP_P_ SH231973 -16.9667 155.235 -1 -17.1000 156.500 40 65 982 4.50000 -16.3860 156.339 40 990 -16.9667 155.235 TC -16.9837 155.275 4 -16.9807 156.767 TC 59 982 89 89 10 221
1973052S13151 1973 24 SP EA KIRSTY 1973-02-26 00:00:00 TS -17.0476 155.873 main 812 773 O_____P_OOO_O_ jtwc_sh SH231973 -17.1000 155.100 -1 -17.2333 156.413 40 65 981 -16.5000 156.300 40 990 -17.1000 155.100 TC -17.1000 155.100 4 -17.1000 156.700 TC 60 982 9 215
1973052S13151 1973 24 SP EA KIRSTY 1973-02-26 02:00:00 TS -17.3085 155.696 65 981 bom main 773 758 P_____O_PPP_P_ SH231973 -17.3785 154.949 -1 -17.5000 156.200 40 65 981 4.50000 -16.7345 156.171 40 990 -17.3785 154.949 TC -17.3756 154.909 4 -17.3280 156.518 TC 60 981 89 89 9 212
1973052S13151 1973 24 SP EA KIRSTY 1973-02-26 03:00:00 TS -17.4454 155.615 main 758 726 P_____P_PPP_P_ SH231973 -17.5272 154.917 -1 -17.6388 156.064 40 65 980 -16.8585 156.098 40 990 -17.5272 154.917 TC -17.5233 154.847 4 -17.4426 156.415 TC 60 981 9 206
1973052S13151 1973 24 SP EA KIRSTY 1973-02-26 05:00:00 TS -17.7261 155.475 65 980 bom main 726 710 P_____O_PPP_P_ SH231973 -17.8389 154.901 -1 -17.9000 155.800 40 65 980 4.50000 -17.1233 155.940 40 990 -17.8389 154.901 TC -17.8342 154.775 4 -17.6777 156.202 TC 60 980 89 89 9 204
1973052S13151 1973 24 SP EA KIRSTY 1973-02-26 06:00:00 TS -17.8670 155.419 main 702 679 O_____P_POP_O_ jtwc_sh SH231973 -18.0000 154.900 -1 -18.0079 155.717 40 65 979 -17.2655 155.858 40 990 -18.0000 154.900 TC -17.9959 154.761 4 -17.8000 156.100 TC 60 980 9 200
1973052S13151 1973 24 SP EA KIRSTY 1973-02-26 08:00:00 TS -18.1463 155.318 65 979 bom main 679 663 P_____O_PPP_P_ SH231973 -18.3309 154.859 -1 -18.2000 155.600 40 65 979 4.50000 -17.5730 155.693 40 990 -18.3309 154.859 TC -18.3275 154.760 4 -18.0425 155.914 TC 61 979 89 89 9 199
1973052S13151 1973 24 SP EA KIRSTY 1973-02-26 09:00:00 TS -18.2873 155.271 main 663 632 P_____P_PPP_P_ SH231973 -18.5000 154.842 -1 -18.2783 155.533 40 65 978 -17.7397 155.614 40 990 -18.5000 154.842 TC -18.4957 154.769 4 -18.1700 155.827 TC 62 979 9 196
1973052S13151 1973 24 SP EA KIRSTY 1973-02-26 11:00:00 TS -18.5883 155.187 65 978 bom main 632 624 P_____O_PPP_P_ SH231973 -18.8364 154.814 -1 -18.5000 155.400 40 65 978 4.50000 -18.1025 155.466 40 990 -18.8364 154.814 TC -18.8328 154.792 4 -18.4469 155.669 TC 64 978 89 89 10 194
1973052S13151 1973 24 SP EA KIRSTY 1973-02-26 12:00:00 TS -18.7597 155.148 main 609 586 O_____P_OOO_O_ jtwc_sh SH231973 -19.0000 154.800 -1 -18.7180 155.333 40 65 977 -18.3000 155.400 40 990 -19.0000 154.800 TC -19.0000 154.800 4 -18.6000 155.600 TC 65 978 11 193
1973052S13151 1973 24 SP EA KIRSTY 1973-02-26 14:00:00 TS -19.1043 155.061 65 977 bom main 586 571 P_____O_PPP_P_ SH231973 -19.3025 154.767 -1 -19.2000 155.200 40 65 977 4.50000 -18.7132 155.289 40 990 -19.3025 154.767 TC -19.2774 154.748 4 -18.9266 155.479 TC 65 977 89 89 11 193
1973052S13151 1973 24 SP EA KIRSTY 1973-02-26 15:00:00 TS -19.2690 155.020 main 564 534 P_____P_PPP_P_ SH231973 -19.4500 154.750 -1 -19.3462 155.128 40 65 976 -18.9354 155.240 40 990 -19.4500 154.750 TC -19.4142 154.723 4 -19.1050 155.427 TC 65 977 10 192
1973052S13151 1973 24 SP EA KIRSTY 1973-02-26 17:00:00 TS -19.6091 154.948 65 976 bom main 534 521 P_____O_PPP_P_ SH231973 -19.7469 154.717 -1 -19.6000 155.000 40 65 976 4.50000 -19.4083 155.154 40 990 -19.7469 154.717 TC -19.6926 154.676 4 -19.4917 155.339 TC 65 976 89 89 11 191
1973052S13151 1973 24 SP EA KIRSTY 1973-02-26 18:00:00 TS -19.7948 154.918 main 521 496 O_____P_POP_O_ jtwc_sh SH231973 -19.9000 154.700 -1 -19.7679 154.953 40 65 976 -19.6577 155.118 40 990 -19.9000 154.700 TC -19.8377 154.656 4 -19.7000 155.300 TC 65 976 12 188
1973052S13151 1973 24 SP EA KIRSTY 1973-02-26 20:00:00 TS -20.1922 154.864 65 976 bom main 496 475 P_____O_PPP_P_ SH231973 -20.1983 154.656 -1 -20.2000 154.900 40 65 976 4.50000 -20.1797 155.059 40 990 -20.1983 154.656 TC -20.1483 154.622 4 -20.1267 155.199 TC 66 975 89 89 12 187
1973052S13151 1973 24 SP EA KIRSTY 1973-02-26 21:00:00 TS -20.4111 154.843 main 475 450 P_____P_PPP_P_ SH231973 -20.3550 154.635 -1 -20.4817 154.881 40 65 975 -20.4511 155.037 40 990 -20.3550 154.635 TC -20.3173 154.611 4 -20.3550 155.155 TC 67 975 14 182
1973052S13151 1973 24 SP EA KIRSTY 1973-02-26 23:00:00 TS -20.8814 154.827 65 975 bom main 450 441 P_____O_PPP_P_ SH231973 -20.7022 154.605 -1 -21.1000 154.900 40 65 975 4.50000 -21.0118 155.007 40 990 -20.7022 154.605 TC -20.6914 154.599 4 -20.8417 155.102 TC 69 975 89 89 14 182
1973052S13151 1973 24 SP EA KIRSTY 1973-02-27 00:00:00 TS -21.1249 154.836 main 441 393 O_____P_OOO_O_ jtwc_sh SH231973 -20.9000 154.600 -1 -21.3746 154.951 40 65 975 -21.3000 155.000 40 990 -20.9000 154.600 TC -20.9000 154.600 4 -21.1000 155.100 TC 70 975 15 176
1973052S13151 1973 24 SP EA KIRSTY 1973-02-27 02:00:00 TS -21.6256 154.880 65 976 bom main 393 372 P_____O_PPP_P_ SH231973 -21.3388 154.612 -1 -21.9000 155.100 40 65 976 4.50000 -21.8818 154.978 40 990 -21.3388 154.612 TC -21.3654 154.601 4 -21.6375 155.155 TC 68 975 89 89 15 175
1973052S13151 1973 24 SP EA KIRSTY 1973-02-27 03:00:00 TS -21.8884 154.911 main 362 319 P_____P_PPP_P_ SH231973 -21.5825 154.628 -1 -22.1558 155.167 40 63 976 -22.1827 154.975 40 990 -21.5825 154.628 TC -21.6180 154.608 4 -21.9200 155.205 TC 67 976 17 173
1973052S13151 1973 24 SP EA KIRSTY 1973-02-27 05:00:00 TS -22.4434 154.988 60 977 bom main 319 291 P_____O_PPP_P_ SH231973 -22.1141 154.672 -1 -22.7000 155.300 30 60 977 4.00000 -22.7990 154.984 40 990 -22.1141 154.672 TC -22.1577 154.634 4 -22.5031 155.331 TC 65 976 84 84 17 172
1973052S13151 1973 24 SP EA KIRSTY 1973-02-27 06:00:00 TS -22.7397 155.031 main 291 240 O_____P_POP_O_ jtwc_sh SH231973 -22.4000 154.700 -1 -23.0230 155.367 30 60 977 -23.1124 154.996 40 990 -22.4000 154.700 TC -22.4427 154.655 4 -22.8000 155.400 TC 65 977 18 172
1973052S13151 1973 24 SP EA KIRSTY 1973-02-27 08:00:00 TS -23.3523 155.115 60 978 bom main 240 226 P_____O_PPP_P_ SH231973 -22.9909 154.748 -1 -23.7000 155.500 30 60 978 4.00000 -23.7443 155.039 40 990 -22.9909 154.748 TC -23.0380 154.712 4 -23.3921 155.526 TC 63 978 84 84 19 173
1973052S13151 1973 24 SP EA KIRSTY 1973-02-27 09:00:00 TS -23.6628 155.162 main 228 202 P_____P_PPP_P_ SH231973 -23.3050 154.778 -1 -24.0025 155.567 30 60 978 -24.0608 155.069 40 990 -23.3050 154.778 TC -23.3461 154.749 4 -23.6925 155.593 TC 62 978 19 172
1973052S13151 1973 24 SP EA KIRSTY 1973-02-27 11:00:00 TS -24.2948 155.266 60 980 bom main 207 196 P_____O_PPP_P_ SH231973 -23.9614 154.853 -1 -24.6000 155.700 30 60 980 4.00000 -24.6897 155.150 40 990 -23.9614 154.853 TC -23.9781 154.843 4 -24.2974 155.731 TC 60 979 84 84 19 171
1973052S13151 1973 24 SP EA KIRSTY 1973-02-27 12:00:00 TS -24.6187 155.324 main 196 194 O_____P_OOO_O_ jtwc_sh SH231973 -24.3000 154.900 -1 -24.9309 155.767 30 60 980 -25.0000 155.200 40 990 -24.3000 154.900 TC -24.3000 154.900 4 -24.6000 155.800 TC 60 980 20 171
1973052S13151 1973 24 SP EA KIRSTY 1973-02-27 14:00:00 TS -25.2767 155.441 60 981 bom main 203 213 P_____O_PPP_P_ SH231973 -24.9950 155.002 -1 -25.6000 155.900 30 60 981 4.00000 -25.6234 155.310 40 990 -24.9950 155.002 TC -24.9738 155.009 4 -25.1999 155.928 TC 58 981 84 84 20 171
1973052S13151 1973 24 SP EA KIRSTY 1973-02-27 15:00:00 TS -25.6050 155.505 main 221 221 P_____P_PPP_P_ SH231973 -25.3499 155.063 -1 -25.9079 155.967 30 58 981 -25.9338 155.375 40 990 -25.3499 155.063 TC -25.3211 155.073 4 -25.4999 155.993 TC 57 981 20 169
1973052S13151 1973 24 SP EA KIRSTY 1973-02-27 17:00:00 TS -26.2547 155.647 55 982 bom main 248 256 P_____O_PPP_P_ SH231973 -26.0561 155.211 -1 -26.5000 156.100 30 55 982 4.00000 -26.5466 155.525 40 990 -26.0561 155.211 TC -26.0236 155.222 4 -26.1000 156.128 TC 55 982 75 75 20 169
1973052S13151 1973 24 SP EA KIRSTY 1973-02-27 18:00:00 TS -26.5752 155.726 main 253 248 O_____P_POP_O_ jtwc_sh SH231973 -26.4000 155.300 -1 -26.8054 156.167 30 55 982 -26.8471 155.609 40 990 -26.4000 155.300 TC -26.3738 155.308 4 -26.4000 156.200 TC 55 983 20 167
1973052S13151 1973 24 SP EA KIRSTY 1973-02-27 20:00:00 TS -27.2061 155.892 55 984 bom main 252 242 P_____O_PPP_P_ SH231973 -27.0814 155.483 -1 -27.4000 156.300 30 55 984 4.00000 -27.4308 155.791 40 990 -27.0814 155.483 TC -27.0594 155.503 4 -27.0271 156.359 TC 55 984 75 75 19 166
1973052S13151 1973 24 SP EA KIRSTY 1973-02-27 21:00:00 TS -27.5097 155.983 main 248 242 P_____P_PPP_P_ SH231973 -27.4096 155.590 -1 -27.6800 156.361 30 53 984 -27.7119 155.888 40 990 -27.4096 155.590 TC -27.3897 155.614 4 -27.3375 156.442 TC 55 984 18 164
1973052S13151 1973 24 SP EA KIRSTY 1973-02-27 23:00:00 TS -28.0830 156.185 50 986 bom main 254 254 P_____O_PPP_P_ SH231973 -28.0226 155.847 -1 -28.2000 156.500 30 50 986 3.50000 -28.2476 156.093 40 990 -28.0226 155.847 TC -28.0125 155.862 4 -27.9285 156.614 TC 55 985 69 69 18 162
1973052S13151 1973 24 SP EA KIRSTY 1973-02-28 00:00:00 TS -28.3480 156.300 main 264 264 O_____P_OOO_O_ jtwc_sh SH231973 -28.3000 156.000 -1 -28.4358 156.598 30 50 986 -28.5000 156.200 40 990 -28.3000 156.000 TC -28.3000 156.000 4 -28.2000 156.700 TC 55 986 16 156
1973052S13151 1973 24 SP EA KIRSTY 1973-02-28 02:00:00 TS -28.8311 156.557 50 987 bom main 291 291 P_____O_PPP_P_ SH231973 -28.7919 156.371 -1 -28.9000 156.800 30 50 987 3.50000 -28.9470 156.412 40 990 -28.7919 156.371 TC -28.7793 156.340 4 -28.6727 156.857 TC 53 986 69 69 16 154
1973052S13151 1973 24 SP EA KIRSTY 1973-02-28 03:00:00 TS -29.0612 156.692 main 301 301 P_____P_PPP_P_ SH231973 -29.0103 156.578 -1 -29.1750 156.875 30 50 987 -29.1546 156.523 40 990 -29.0103 156.578 TC -28.9963 156.527 4 -28.8873 156.936 TC 52 987 15 151
1973052S13151 1973 24 SP EA KIRSTY 1973-02-28 05:00:00 TS -29.4919 156.969 50 988 bom main 336 336 P_____O_PPP_P_ SH231973 -29.4106 156.998 -1 -29.7000 157.000 30 50 988 3.50000 -29.5478 156.754 40 990 -29.4106 156.998 TC -29.3967 156.921 4 -29.2963 157.106 TC 50 987 69 69 14 150
1973052S13151 1973 24 SP EA KIRSTY 1973-02-28 06:00:00 TS -29.6867 157.106 main 350 350 O_____P_POP_O_ jtwc_sh SH231973 -29.6000 157.200 -1 -29.8849 157.051 30 50 988 -29.7374 156.873 40 990 -29.6000 157.200 TC -29.5849 157.121 4 -29.5000 157.200 TC 50 988 13 147
1973052S13151 1973 24 SP EA KIRSTY 1973-02-28 08:00:00 TS -30.0595 157.385 50 989 bom main 390 390 P_____O_PPP_P_ SH231973 -29.9661 157.582 -1 -30.2000 157.200 30 50 989 3.50000 -30.1122 157.114 40 990 -29.9661 157.582 TC -29.9496 157.517 4 -29.9495 157.401 TC 48 988 69 69 13 147
1973052S13151 1973 24 SP EA KIRSTY 1973-02-28 09:00:00 TS -30.2471 157.533 main 403 403 P_____P_PPP_P_ SH231973 -30.1425 157.760 -1 -30.4030 157.348 30 50 989 -30.3015 157.236 40 990 -30.1425 157.760 TC -30.1308 157.705 4 -30.1723 157.513 TC 47 989 14 146
1973052S13151 1973 24 SP EA KIRSTY 1973-02-28 11:00:00 TS -30.6219 157.827 50 990 bom main 438 449 P_____O_PPP_P_ SH231973 -30.5048 158.073 -1 -30.8000 157.700 30 50 990 3.50000 -30.6934 157.479 40 990 -30.5048 158.073 TC -30.5036 158.050 4 -30.6003 157.761 TC 45 989 69 69 13 147
1973052S13151 1973 24 SP EA KIRSTY 1973-02-28 12:00:00 TS -30.8054 157.962 main 461 461 O_____P_OOO_O_ jtwc_sh SH231973 -30.7000 158.200 -1 -30.9381 157.831 30 48 990 -30.9000 157.600 40 990 -30.7000 158.200 TC -30.7000 158.200 4 -30.8000 157.900 TC 45 990 13 150
1973052S13151 1973 24 SP EA KIRSTY 1973-02-28 14:00:00 TS -31.1903 158.216 45 991 bom main 484 484 P_____O_PPP_P_ SH231973 -31.1372 158.382 -1 -31.2000 158.100 30 45 991 3.00000 -31.3110 157.845 40 990 -31.1372 158.382 TC -31.2113 158.418 4 -31.1141 158.258 TC 45 990 64 64 14 151
1973052S13151 1973 24 SP EA KIRSTY 1973-02-28 15:00:00 TS -31.3982 158.346 main 494 494 P_____P_PPP_P_ SH231973 -31.3697 158.446 -1 -31.3951 158.289 30 43 991 -31.5221 157.968 40 990 -31.3697 158.446 TC -31.4768 158.507 4 -31.2631 158.445 TC 45 991 14 154
1973052S13151 1973 24 SP EA KIRSTY 1973-02-28 17:00:00 TS -31.8373 158.583 40 992 bom main 526 528 P_____O_PPP_P_ SH231973 -31.8529 158.550 -1 -31.8000 158.700 30 40 992 3.00000 -31.9641 158.213 40 990 -31.8529 158.550 TC -32.0121 158.654 4 -31.5958 158.777 TC 45 991 55 55 14 157
1973052S13151 1973 24 SP EA KIRSTY 1973-02-28 18:00:00 TS -32.0619 158.679 main 541 541 O_____P_POP_O_ jtwc_sh SH231973 -32.1000 158.600 -1 -31.9381 158.870 30 40 992 -32.1984 158.333 40 990 -32.1000 158.600 TC -32.2756 158.715 4 -31.8000 158.900 TC 45 992 15 163
1973052S13151 1973 24 SP EA KIRSTY 1973-02-28 20:00:00 TS -32.5662 158.843 40 993 bom main 562 571 P_____O_PPP_P_ SH231973 -32.6518 158.738 -1 -32.2000 159.200 30 40 993 3.00000 -32.7023 158.568 40 990 -32.6518 158.738 TC -32.7786 158.819 4 -32.4125 158.995 TC 50 55 55 16 165
1973052S13151 1973 24 SP EA KIRSTY 1973-02-28 21:00:00 TS -32.8286 158.928 main 578 578 P_____P_PPP_P_ SH231973 -32.9250 158.807 -1 -32.3897 159.403 30 38 993 -32.9754 158.681 40 990 -32.9250 158.807 TC -33.0117 158.866 4 -32.7446 159.004 TC 52 16 165
1973052S13151 1973 24 SP EA KIRSTY 1973-02-28 23:00:00 TS -33.3295 159.088 35 994 bom main 612 615 P_____O_PPP_P_ SH231973 -33.4102 158.939 -1 -32.8000 159.800 30 35 994 3.00000 -33.5725 158.898 40 990 -33.4102 158.939 TC -33.4256 158.954 4 -33.3588 158.996 TC 57 49 49 15 165
1973052S13151 1973 24 SP EA KIRSTY 1973-03-01 00:00:00 TS -33.5412 159.158 main 627 627 O_____P_OOO_O_ jtwc_sh SH231973 -33.6000 159.000 -1 -32.9473 159.950 30 35 994 -33.9000 159.000 40 990 -33.6000 159.000 TC -33.6000 159.000 4 -33.6000 159.000 TC 60 11 166
1973052S13151 1973 24 SP EA KIRSTY 1973-03-01 02:00:00 TS -33.8832 159.250 main 640 649 P_____O_PPP_P_ SH231973 -33.8256 159.103 -1 -33.3000 160.200 30 35 995 3.00000 -34.6172 159.191 40 990 -33.8256 159.103 TC -33.7359 159.059 4 -33.8493 159.079 TC 60 49 49 10 170
1973052S13151 1973 24 SP EA KIRSTY 1973-03-01 03:00:00 TS -34.0464 159.265 main 653 653 P_____P_PPP_P_ SH231973 -33.8899 159.151 -1 -33.5816 160.328 30 33 995 -35.0039 159.281 40 990 -33.8899 159.151 TC -33.7684 159.084 4 -33.9124 159.128 TC 60 9 170
1973052S13151 1973 24 SP EA KIRSTY 1973-03-01 05:00:00 TS -34.3066 159.328 main 664 664 P_____O_PPP_P_ SH231973 -33.9678 159.247 -1 -34.3000 160.600 20 30 996 2.50000 -35.8245 159.451 40 990 -33.9678 159.247 TC -33.7989 159.139 4 -33.9757 159.239 TC 60 45 45 5 170
1973052S13151 1973 24 SP EA KIRSTY 1973-03-01 06:00:00 TS -34.3163 159.310 main 664 664 O_______POP_O_ jtwc_sh SH231973 -34.0000 159.300 -1 20 -36.2547 159.533 40 990 -34.0000 159.300 TC -33.8113 159.175 4 -34.0000 159.300 TC 60 2 133
1973052S13151 1973 24 SP EA KIRSTY 1973-03-01 09:00:00 TS -34.3879 159.436 main 676 676 P_______PPP_P_ SH231973 -34.0068 159.414 -1 -37.6035 159.768 40 990 -34.0068 159.414 TC -33.9237 159.352 4 -34.0065 159.399 TC 62 4 128
1973052S13151 1973 24 SP EA KIRSTY 1973-03-01 12:00:00 TS -34.5765 159.718 40 990 wellington main 709 709 O_______OOO_O_ jtwc_sh SH231973 -34.3000 159.700 -1 -39.0000 160.000 40 990 -34.3000 159.700 TC -34.3000 159.700 4 -34.3000 159.700 TC 65 12 139
1973052S13151 1973 24 SP MM KIRSTY 1973-03-01 15:00:00 TS -35.2934 160.379 main 796 796 P________PP_P_ SH231973 -35.2928 160.336 -1 -35.2928 160.336 TC -35.2943 160.393 4 -35.2936 160.449 TC 65 24 148
1973052S13151 1973 24 SP MM KIRSTY 1973-03-01 18:00:00 TS -36.5865 161.269 main 930 866 O________OP_O_ jtwc_sh SH231973 -36.6000 161.200 -1 -36.6000 161.200 TC -36.5460 161.274 4 -36.6000 161.400 TC 65 30 150
1973052S13151 1973 24 SP MM KIRSTY 1973-03-01 21:00:00 TS -37.8672 162.221 main 857 721 P________PP_P_ SH231973 -37.8685 162.176 -1 -37.8685 162.176 TC -37.8488 162.223 4 -37.8828 162.307 TC 62 28 149
1973052S13151 1973 24 SP MM KIRSTY 1973-03-02 00:00:00 TS -39.0000 163.100 main 712 610 O________OO_O_ jtwc_sh SH231973 -39.0000 163.100 -1 -39.0000 163.100 TC -39.0000 163.100 4 -39.0000 163.100 TC 60 23 149
1973052S13151 1973 24 SP MM KIRSTY 1973-03-02 03:00:00 TS -39.7979 163.716 main 610 545 P________PP_P_ SH231973 -39.8187 163.736 -1 -39.8187 163.736 TC -39.8504 163.785 4 -39.7037 163.607 TC 52 16 149
1973052S13151 1973 24 SP MM KIRSTY 1973-03-02 06:00:00 TS -40.3606 164.173 main 531 475 O________OP_O_ jtwc_sh SH231973 -40.4000 164.200 -1 -40.4000 164.200 TC -40.4425 164.292 4 -40.2000 164.000 TC 45 12 147
1973052S13151 1973 24 SP MM KIRSTY 1973-03-02 09:00:00 TS -40.8065 164.590 main 475 419 P________PP_P_ SH231973 -40.8357 164.608 -1 -40.8357 164.608 TC -40.8638 164.676 4 -40.6911 164.467 TC 37 10 143
1973052S13151 1973 24 SP MM KIRSTY 1973-03-02 12:00:00 TS -41.2000 165.000 main 419 O________OO_O_ jtwc_sh SH231973 -41.2000 165.000 -1 -41.2000 165.000 TC -41.2000 165.000 6 -41.2000 165.000 TC 30 10 142

Digital Typhoon Data and Search

About IBTrACS Database

This database is a web-friendly format of International Best Track Archive for Climate Stewardship (IBTrACS), a global best track data archive curated by NOAA dating back to 1842.

Updated: 2021-10-21